sensor_id;sensor_type;location;lat;lon;timestamp;temperature;humidity
14122;DHT22;7139;48.114;11.442;2023-05-07T00:01:37;13.00;99.90
14122;DHT22;7139;48.114;11.442;2023-05-07T00:04:04;13.00;99.90
14122;DHT22;7139;48.114;11.442;2023-05-07T00:06:32;13.00;99.90
14122;DHT22;7139;48.114;11.442;2023-05-07T00:08:59;13.00;99.90
14122;DHT22;7139;48.114;11.442;2023-05-07T00:11:26;12.90;99.90
14122;DHT22;7139;48.114;11.442;2023-05-07T00:13:53;13.00;99.90
14122;DHT22;7139;48.114;11.442;2023-05-07T00:16:20;12.90;99.90
14122;DHT22;7139;48.114;11.442;2023-05-07T00:18:48;12.90;99.90
14122;DHT22;7139;48.114;11.442;2023-05-07T00:21:15;12.80;99.90
14122;DHT22;7139;48.114;11.442;2023-05-07T00:23:42;12.80;99.90
14122;DHT22;7139;48.114;11.442;2023-05-07T00:26:09;12.90;99.90
14122;DHT22;7139;48.114;11.442;2023-05-07T00:28:36;12.80;99.90
14122;DHT22;7139;48.114;11.442;2023-05-07T00:31:02;12.70;99.90
14122;DHT22;7139;48.114;11.442;2023-05-07T00:33:29;12.70;99.90
14122;DHT22;7139;48.114;11.442;2023-05-07T00:35:57;12.70;99.90
14122;DHT22;7139;48.114;11.442;2023-05-07T00:38:26;12.80;99.90
14122;DHT22;7139;48.114;11.442;2023-05-07T00:40:53;12.70;99.90
14122;DHT22;7139;48.114;11.442;2023-05-07T00:43:19;12.70;99.90
14122;DHT22;7139;48.114;11.442;2023-05-07T00:45:46;12.70;99.90
14122;DHT22;7139;48.114;11.442;2023-05-07T00:48:13;12.70;99.90
14122;DHT22;7139;48.114;11.442;2023-05-07T00:50:40;12.70;99.90
14122;DHT22;7139;48.114;11.442;2023-05-07T00:53:09;12.70;99.90
14122;DHT22;7139;48.114;11.442;2023-05-07T00:55:35;12.60;99.90
14122;DHT22;7139;48.114;11.442;2023-05-07T00:58:02;12.60;99.90
14122;DHT22;7139;48.114;11.442;2023-05-07T01:00:29;12.60;99.90
14122;DHT22;7139;48.114;11.442;2023-05-07T01:02:56;12.60;99.90
14122;DHT22;7139;48.114;11.442;2023-05-07T01:05:24;12.60;99.90
14122;DHT22;7139;48.114;11.442;2023-05-07T01:07:52;12.60;99.90
14122;DHT22;7139;48.114;11.442;2023-05-07T01:10:22;12.60;99.90
14122;DHT22;7139;48.114;11.442;2023-05-07T01:12:49;12.60;99.90
14122;DHT22;7139;48.114;11.442;2023-05-07T01:15:17;12.60;99.90
14122;DHT22;7139;48.114;11.442;2023-05-07T01:17:44;12.60;99.90
14122;DHT22;7139;48.114;11.442;2023-05-07T01:20:11;12.60;99.90
14122;DHT22;7139;48.114;11.442;2023-05-07T01:22:40;12.60;99.90
14122;DHT22;7139;48.114;11.442;2023-05-07T01:25:08;12.60;99.90
14122;DHT22;7139;48.114;11.442;2023-05-07T01:27:35;12.60;99.90
14122;DHT22;7139;48.114;11.442;2023-05-07T01:30:02;12.60;99.90
14122;DHT22;7139;48.114;11.442;2023-05-07T01:32:32;12.60;99.90
14122;DHT22;7139;48.114;11.442;2023-05-07T01:35:01;12.60;99.90
14122;DHT22;7139;48.114;11.442;2023-05-07T01:37:29;12.60;99.90
14122;DHT22;7139;48.114;11.442;2023-05-07T01:39:57;12.60;99.90
14122;DHT22;7139;48.114;11.442;2023-05-07T01:42:24;12.60;99.90
14122;DHT22;7139;48.114;11.442;2023-05-07T01:44:51;12.60;99.90
14122;DHT22;7139;48.114;11.442;2023-05-07T01:47:18;12.50;99.90
14122;DHT22;7139;48.114;11.442;2023-05-07T01:49:45;12.50;99.90
14122;DHT22;7139;48.114;11.442;2023-05-07T01:52:12;12.50;99.90
14122;DHT22;7139;48.114;11.442;2023-05-07T01:54:39;12.50;99.90
14122;DHT22;7139;48.114;11.442;2023-05-07T01:57:07;12.50;99.90
14122;DHT22;7139;48.114;11.442;2023-05-07T01:59:33;12.50;99.90
14122;DHT22;7139;48.114;11.442;2023-05-07T02:02:00;12.50;99.90
14122;DHT22;7139;48.114;11.442;2023-05-07T02:04:27;12.40;99.90
14122;DHT22;7139;48.114;11.442;2023-05-07T02:06:54;12.40;99.90
14122;DHT22;7139;48.114;11.442;2023-05-07T02:09:21;12.40;99.90
14122;DHT22;7139;48.114;11.442;2023-05-07T02:11:48;12.30;99.90
14122;DHT22;7139;48.114;11.442;2023-05-07T02:14:16;12.30;99.90
14122;DHT22;7139;48.114;11.442;2023-05-07T02:16:43;12.30;99.90
14122;DHT22;7139;48.114;11.442;2023-05-07T02:19:10;12.30;99.90
14122;DHT22;7139;48.114;11.442;2023-05-07T02:21:36;12.30;99.90
14122;DHT22;7139;48.114;11.442;2023-05-07T02:24:03;12.30;99.90
14122;DHT22;7139;48.114;11.442;2023-05-07T02:26:30;12.20;99.90
14122;DHT22;7139;48.114;11.442;2023-05-07T02:28:57;12.30;99.90
14122;DHT22;7139;48.114;11.442;2023-05-07T02:31:25;12.20;99.90
14122;DHT22;7139;48.114;11.442;2023-05-07T02:33:52;12.20;99.90
14122;DHT22;7139;48.114;11.442;2023-05-07T02:36:18;12.20;99.90
14122;DHT22;7139;48.114;11.442;2023-05-07T02:38:45;12.10;99.90
14122;DHT22;7139;48.114;11.442;2023-05-07T02:41:12;12.20;99.90
14122;DHT22;7139;48.114;11.442;2023-05-07T02:43:38;12.10;99.90
14122;DHT22;7139;48.114;11.442;2023-05-07T02:46:06;12.10;99.90
14122;DHT22;7139;48.114;11.442;2023-05-07T02:48:35;12.10;99.90
14122;DHT22;7139;48.114;11.442;2023-05-07T02:51:02;12.00;99.90
14122;DHT22;7139;48.114;11.442;2023-05-07T02:53:30;12.00;99.90
14122;DHT22;7139;48.114;11.442;2023-05-07T02:55:59;12.00;99.90
14122;DHT22;7139;48.114;11.442;2023-05-07T02:58:26;12.00;99.90
14122;DHT22;7139;48.114;11.442;2023-05-07T03:00:53;12.00;99.90
14122;DHT22;7139;48.114;11.442;2023-05-07T03:03:20;12.00;99.90
14122;DHT22;7139;48.114;11.442;2023-05-07T03:05:48;11.90;99.90
14122;DHT22;7139;48.114;11.442;2023-05-07T03:08:15;11.90;99.90
14122;DHT22;7139;48.114;11.442;2023-05-07T03:10:41;11.80;99.90
14122;DHT22;7139;48.114;11.442;2023-05-07T03:13:08;11.80;99.90
14122;DHT22;7139;48.114;11.442;2023-05-07T03:15:35;11.80;99.90
14122;DHT22;7139;48.114;11.442;2023-05-07T03:18:01;11.80;99.90
14122;DHT22;7139;48.114;11.442;2023-05-07T03:20:28;11.80;99.90
14122;DHT22;7139;48.114;11.442;2023-05-07T03:22:56;11.80;99.90
14122;DHT22;7139;48.114;11.442;2023-05-07T03:25:23;11.80;99.90
14122;DHT22;7139;48.114;11.442;2023-05-07T03:27:50;11.70;99.90
14122;DHT22;7139;48.114;11.442;2023-05-07T03:30:17;11.70;99.90
14122;DHT22;7139;48.114;11.442;2023-05-07T03:32:44;11.80;99.90
14122;DHT22;7139;48.114;11.442;2023-05-07T03:35:10;11.70;99.90
14122;DHT22;7139;48.114;11.442;2023-05-07T03:37:38;11.80;99.90
14122;DHT22;7139;48.114;11.442;2023-05-07T03:40:07;11.80;99.90
14122;DHT22;7139;48.114;11.442;2023-05-07T03:42:35;11.70;99.90
14122;DHT22;7139;48.114;11.442;2023-05-07T03:45:02;11.70;99.90
14122;DHT22;7139;48.114;11.442;2023-05-07T03:47:29;11.70;99.90
14122;DHT22;7139;48.114;11.442;2023-05-07T03:49:56;11.70;99.90
14122;DHT22;7139;48.114;11.442;2023-05-07T03:52:23;11.60;99.90
14122;DHT22;7139;48.114;11.442;2023-05-07T03:54:51;11.70;99.90
14122;DHT22;7139;48.114;11.442;2023-05-07T03:57:20;11.60;99.90
14122;DHT22;7139;48.114;11.442;2023-05-07T03:59:46;11.60;99.90
14122;DHT22;7139;48.114;11.442;2023-05-07T04:02:13;11.50;99.90
14122;DHT22;7139;48.114;11.442;2023-05-07T04:04:40;11.60;99.90
14122;DHT22;7139;48.114;11.442;2023-05-07T04:07:06;11.50;99.90
14122;DHT22;7139;48.114;11.442;2023-05-07T04:09:33;11.50;99.90
14122;DHT22;7139;48.114;11.442;2023-05-07T04:12:00;11.50;99.90
14122;DHT22;7139;48.114;11.442;2023-05-07T04:14:29;11.50;99.90
14122;DHT22;7139;48.114;11.442;2023-05-07T04:16:57;11.50;99.90
14122;DHT22;7139;48.114;11.442;2023-05-07T04:19:24;11.50;99.90
14122;DHT22;7139;48.114;11.442;2023-05-07T04:21:51;11.50;99.90
14122;DHT22;7139;48.114;11.442;2023-05-07T04:24:17;11.50;99.90
14122;DHT22;7139;48.114;11.442;2023-05-07T04:26:44;11.50;99.90
14122;DHT22;7139;48.114;11.442;2023-05-07T04:29:11;11.50;99.90
14122;DHT22;7139;48.114;11.442;2023-05-07T04:31:39;11.50;99.90
14122;DHT22;7139;48.114;11.442;2023-05-07T04:34:06;11.60;99.90
14122;DHT22;7139;48.114;11.442;2023-05-07T04:36:32;11.60;99.90
14122;DHT22;7139;48.114;11.442;2023-05-07T04:38:59;11.60;99.90
14122;DHT22;7139;48.114;11.442;2023-05-07T04:41:26;11.60;99.90
14122;DHT22;7139;48.114;11.442;2023-05-07T04:43:53;11.60;99.90
14122;DHT22;7139;48.114;11.442;2023-05-07T04:46:20;11.60;99.90
14122;DHT22;7139;48.114;11.442;2023-05-07T04:48:48;11.60;99.90
14122;DHT22;7139;48.114;11.442;2023-05-07T04:51:15;11.60;99.90
14122;DHT22;7139;48.114;11.442;2023-05-07T04:53:42;11.70;99.90
14122;DHT22;7139;48.114;11.442;2023-05-07T04:56:09;11.60;99.90
14122;DHT22;7139;48.114;11.442;2023-05-07T04:58:35;11.70;99.90
14122;DHT22;7139;48.114;11.442;2023-05-07T05:01:02;11.70;99.90
14122;DHT22;7139;48.114;11.442;2023-05-07T05:03:30;11.60;99.90
14122;DHT22;7139;48.114;11.442;2023-05-07T05:05:58;11.70;99.90
14122;DHT22;7139;48.114;11.442;2023-05-07T05:08:25;11.70;99.90
14122;DHT22;7139;48.114;11.442;2023-05-07T05:10:52;11.70;99.90
14122;DHT22;7139;48.114;11.442;2023-05-07T05:13:19;11.60;99.90
14122;DHT22;7139;48.114;11.442;2023-05-07T05:15:46;11.60;99.90
14122;DHT22;7139;48.114;11.442;2023-05-07T05:18:13;11.60;99.90
14122;DHT22;7139;48.114;11.442;2023-05-07T05:20:40;11.60;99.90
14122;DHT22;7139;48.114;11.442;2023-05-07T05:23:08;11.70;99.90
14122;DHT22;7139;48.114;11.442;2023-05-07T05:25:35;11.70;99.90
14122;DHT22;7139;48.114;11.442;2023-05-07T05:28:02;11.70;99.90
14122;DHT22;7139;48.114;11.442;2023-05-07T05:30:29;11.70;99.90
14122;DHT22;7139;48.114;11.442;2023-05-07T05:32:56;11.70;99.90
14122;DHT22;7139;48.114;11.442;2023-05-07T05:35:23;11.80;99.90
14122;DHT22;7139;48.114;11.442;2023-05-07T05:37:49;11.80;99.90
14122;DHT22;7139;48.114;11.442;2023-05-07T05:40:18;11.80;99.90
14122;DHT22;7139;48.114;11.442;2023-05-07T05:42:44;11.90;99.90
14122;DHT22;7139;48.114;11.442;2023-05-07T05:45:11;11.90;99.90
14122;DHT22;7139;48.114;11.442;2023-05-07T05:47:38;12.00;99.90
14122;DHT22;7139;48.114;11.442;2023-05-07T05:50:06;12.00;99.90
14122;DHT22;7139;48.114;11.442;2023-05-07T05:52:33;12.10;99.90
14122;DHT22;7139;48.114;11.442;2023-05-07T05:55:00;12.10;99.90
14122;DHT22;7139;48.114;11.442;2023-05-07T05:57:28;12.10;99.90
14122;DHT22;7139;48.114;11.442;2023-05-07T05:59:55;12.20;99.90
14122;DHT22;7139;48.114;11.442;2023-05-07T06:02:21;12.30;99.90
14122;DHT22;7139;48.114;11.442;2023-05-07T06:04:48;12.30;99.90
14122;DHT22;7139;48.114;11.442;2023-05-07T06:07:15;12.40;99.90
14122;DHT22;7139;48.114;11.442;2023-05-07T06:09:42;12.50;99.90
14122;DHT22;7139;48.114;11.442;2023-05-07T06:12:08;12.60;99.90
14122;DHT22;7139;48.114;11.442;2023-05-07T06:14:36;12.70;99.90
14122;DHT22;7139;48.114;11.442;2023-05-07T06:17:03;12.80;99.90
14122;DHT22;7139;48.114;11.442;2023-05-07T06:19:30;12.90;99.90
14122;DHT22;7139;48.114;11.442;2023-05-07T06:21:57;13.00;99.90
14122;DHT22;7139;48.114;11.442;2023-05-07T06:24:24;13.10;99.90
14122;DHT22;7139;48.114;11.442;2023-05-07T06:26:51;13.20;99.90
14122;DHT22;7139;48.114;11.442;2023-05-07T06:29:18;13.30;99.90
14122;DHT22;7139;48.114;11.442;2023-05-07T06:31:46;13.50;99.90
14122;DHT22;7139;48.114;11.442;2023-05-07T06:34:12;13.60;99.90
14122;DHT22;7139;48.114;11.442;2023-05-07T06:36:40;13.70;99.90
14122;DHT22;7139;48.114;11.442;2023-05-07T06:39:07;13.80;99.90
14122;DHT22;7139;48.114;11.442;2023-05-07T06:41:33;14.00;99.90
14122;DHT22;7139;48.114;11.442;2023-05-07T06:44:01;14.10;99.90
14122;DHT22;7139;48.114;11.442;2023-05-07T06:46:28;14.20;99.90
14122;DHT22;7139;48.114;11.442;2023-05-07T06:48:56;14.40;99.90
14122;DHT22;7139;48.114;11.442;2023-05-07T06:51:23;14.50;99.90
14122;DHT22;7139;48.114;11.442;2023-05-07T06:53:50;14.60;99.90
14122;DHT22;7139;48.114;11.442;2023-05-07T06:56:17;14.70;99.90
14122;DHT22;7139;48.114;11.442;2023-05-07T06:58:44;14.90;99.90
14122;DHT22;7139;48.114;11.442;2023-05-07T07:01:11;15.00;99.90
14122;DHT22;7139;48.114;11.442;2023-05-07T07:03:37;15.20;99.90
14122;DHT22;7139;48.114;11.442;2023-05-07T07:06:05;15.30;99.90
14122;DHT22;7139;48.114;11.442;2023-05-07T07:08:32;15.40;99.90
14122;DHT22;7139;48.114;11.442;2023-05-07T07:11:00;15.60;99.90
14122;DHT22;7139;48.114;11.442;2023-05-07T07:13:26;15.80;99.90
14122;DHT22;7139;48.114;11.442;2023-05-07T07:15:53;15.90;99.90
14122;DHT22;7139;48.114;11.442;2023-05-07T07:18:20;16.00;99.90
14122;DHT22;7139;48.114;11.442;2023-05-07T07:20:46;16.20;99.90
14122;DHT22;7139;48.114;11.442;2023-05-07T07:23:15;16.30;99.90
14122;DHT22;7139;48.114;11.442;2023-05-07T07:25:41;16.50;99.90
14122;DHT22;7139;48.114;11.442;2023-05-07T07:28:08;16.60;99.90
14122;DHT22;7139;48.114;11.442;2023-05-07T07:30:36;16.70;99.90
14122;DHT22;7139;48.114;11.442;2023-05-07T07:33:03;16.90;99.90
14122;DHT22;7139;48.114;11.442;2023-05-07T07:35:30;17.00;99.90
14122;DHT22;7139;48.114;11.442;2023-05-07T07:37:57;17.10;99.90
14122;DHT22;7139;48.114;11.442;2023-05-07T07:40:26;17.30;99.90
14122;DHT22;7139;48.114;11.442;2023-05-07T07:42:53;17.40;99.90
14122;DHT22;7139;48.114;11.442;2023-05-07T07:45:20;17.60;99.90
14122;DHT22;7139;48.114;11.442;2023-05-07T07:47:47;17.70;99.90
14122;DHT22;7139;48.114;11.442;2023-05-07T07:50:13;17.90;99.90
14122;DHT22;7139;48.114;11.442;2023-05-07T07:52:40;18.10;99.90
14122;DHT22;7139;48.114;11.442;2023-05-07T07:55:08;18.20;99.90
14122;DHT22;7139;48.114;11.442;2023-05-07T07:57:36;18.40;99.90
14122;DHT22;7139;48.114;11.442;2023-05-07T08:00:04;18.60;99.90
14122;DHT22;7139;48.114;11.442;2023-05-07T08:02:32;18.70;99.90
14122;DHT22;7139;48.114;11.442;2023-05-07T08:04:59;18.80;99.90
14122;DHT22;7139;48.114;11.442;2023-05-07T08:07:25;18.90;99.90
14122;DHT22;7139;48.114;11.442;2023-05-07T08:09:52;19.10;99.90
14122;DHT22;7139;48.114;11.442;2023-05-07T08:12:19;19.20;99.90
14122;DHT22;7139;48.114;11.442;2023-05-07T08:14:47;19.30;99.90
14122;DHT22;7139;48.114;11.442;2023-05-07T08:17:14;19.40;99.90
14122;DHT22;7139;48.114;11.442;2023-05-07T08:19:41;19.50;99.90
14122;DHT22;7139;48.114;11.442;2023-05-07T08:22:08;19.60;99.90
14122;DHT22;7139;48.114;11.442;2023-05-07T08:24:35;19.70;99.90
14122;DHT22;7139;48.114;11.442;2023-05-07T08:27:01;19.90;99.90
14122;DHT22;7139;48.114;11.442;2023-05-07T08:29:28;20.00;99.90
14122;DHT22;7139;48.114;11.442;2023-05-07T08:31:56;20.20;99.90
14122;DHT22;7139;48.114;11.442;2023-05-07T08:34:23;20.40;99.90
14122;DHT22;7139;48.114;11.442;2023-05-07T08:36:50;20.50;99.90
14122;DHT22;7139;48.114;11.442;2023-05-07T08:39:16;20.50;99.90
14122;DHT22;7139;48.114;11.442;2023-05-07T08:41:44;20.60;99.90
14122;DHT22;7139;48.114;11.442;2023-05-07T08:44:13;20.80;99.80
14122;DHT22;7139;48.114;11.442;2023-05-07T08:46:41;20.90;99.20
14122;DHT22;7139;48.114;11.442;2023-05-07T08:49:10;20.90;97.40
14122;DHT22;7139;48.114;11.442;2023-05-07T08:51:37;21.00;97.90
14122;DHT22;7139;48.114;11.442;2023-05-07T08:54:05;21.10;97.70
14122;DHT22;7139;48.114;11.442;2023-05-07T08:56:33;21.20;96.80
14122;DHT22;7139;48.114;11.442;2023-05-07T09:01:27;21.40;96.60
14122;DHT22;7139;48.114;11.442;2023-05-07T09:03:55;21.50;97.80
14122;DHT22;7139;48.114;11.442;2023-05-07T09:06:23;21.60;97.70
14122;DHT22;7139;48.114;11.442;2023-05-07T09:08:50;21.70;96.60
14122;DHT22;7139;48.114;11.442;2023-05-07T09:11:20;21.80;96.70
14122;DHT22;7139;48.114;11.442;2023-05-07T09:13:47;21.90;97.10
14122;DHT22;7139;48.114;11.442;2023-05-07T09:16:14;21.90;96.70
14122;DHT22;7139;48.114;11.442;2023-05-07T09:18:41;22.00;96.40
14122;DHT22;7139;48.114;11.442;2023-05-07T09:21:10;22.20;96.50
14122;DHT22;7139;48.114;11.442;2023-05-07T09:23:38;22.30;95.80
14122;DHT22;7139;48.114;11.442;2023-05-07T09:26:06;22.40;95.20
14122;DHT22;7139;48.114;11.442;2023-05-07T09:28:38;22.40;93.70
14122;DHT22;7139;48.114;11.442;2023-05-07T09:31:06;22.40;94.30
14122;DHT22;7139;48.114;11.442;2023-05-07T09:33:33;22.50;93.00
14122;DHT22;7139;48.114;11.442;2023-05-07T09:36:03;22.60;93.60
14122;DHT22;7139;48.114;11.442;2023-05-07T09:38:31;22.80;92.70
14122;DHT22;7139;48.114;11.442;2023-05-07T09:41:03;22.90;93.00
14122;DHT22;7139;48.114;11.442;2023-05-07T09:43:32;23.00;93.30
14122;DHT22;7139;48.114;11.442;2023-05-07T09:46:02;23.00;93.40
14122;DHT22;7139;48.114;11.442;2023-05-07T09:48:29;23.00;92.40
14122;DHT22;7139;48.114;11.442;2023-05-07T09:50:57;22.80;92.20
14122;DHT22;7139;48.114;11.442;2023-05-07T09:53:29;22.80;91.40
14122;DHT22;7139;48.114;11.442;2023-05-07T09:55:57;22.90;92.50
14122;DHT22;7139;48.114;11.442;2023-05-07T09:58:25;23.00;91.40
14122;DHT22;7139;48.114;11.442;2023-05-07T10:00:53;23.00;91.70
14122;DHT22;7139;48.114;11.442;2023-05-07T10:03:20;23.10;91.90
14122;DHT22;7139;48.114;11.442;2023-05-07T10:05:49;23.10;92.30
14122;DHT22;7139;48.114;11.442;2023-05-07T10:08:16;23.10;91.80
14122;DHT22;7139;48.114;11.442;2023-05-07T10:10:45;23.00;91.40
14122;DHT22;7139;48.114;11.442;2023-05-07T10:13:12;23.00;91.20
14122;DHT22;7139;48.114;11.442;2023-05-07T10:15:41;23.00;92.40
14122;DHT22;7139;48.114;11.442;2023-05-07T10:18:08;23.00;92.50
14122;DHT22;7139;48.114;11.442;2023-05-07T10:20:36;23.00;92.70
14122;DHT22;7139;48.114;11.442;2023-05-07T10:23:04;23.10;92.60
14122;DHT22;7139;48.114;11.442;2023-05-07T10:25:32;23.10;93.00
14122;DHT22;7139;48.114;11.442;2023-05-07T10:28:03;23.30;93.20
14122;DHT22;7139;48.114;11.442;2023-05-07T10:30:44;23.50;92.00
14122;DHT22;7139;48.114;11.442;2023-05-07T10:33:15;23.60;91.60
14122;DHT22;7139;48.114;11.442;2023-05-07T10:35:44;23.60;91.40
14122;DHT22;7139;48.114;11.442;2023-05-07T10:38:13;23.50;91.20
14122;DHT22;7139;48.114;11.442;2023-05-07T10:40:40;23.60;91.20
14122;DHT22;7139;48.114;11.442;2023-05-07T10:43:07;23.60;90.00
14122;DHT22;7139;48.114;11.442;2023-05-07T10:45:33;23.40;90.30
14122;DHT22;7139;48.114;11.442;2023-05-07T10:48:12;22.90;91.20
14122;DHT22;7139;48.114;11.442;2023-05-07T10:50:40;22.90;92.00
14122;DHT22;7139;48.114;11.442;2023-05-07T10:53:23;22.90;91.80
14122;DHT22;7139;48.114;11.442;2023-05-07T10:56:24;23.00;91.40
14122;DHT22;7139;48.114;11.442;2023-05-07T10:58:52;23.10;91.40
14122;DHT22;7139;48.114;11.442;2023-05-07T11:01:49;23.20;90.70
14122;DHT22;7139;48.114;11.442;2023-05-07T11:04:18;23.10;90.30
14122;DHT22;7139;48.114;11.442;2023-05-07T11:07:24;23.10;91.40
14122;DHT22;7139;48.114;11.442;2023-05-07T11:10:02;23.00;90.50
14122;DHT22;7139;48.114;11.442;2023-05-07T11:12:50;22.90;90.70
14122;DHT22;7139;48.114;11.442;2023-05-07T11:15:33;23.00;90.90
14122;DHT22;7139;48.114;11.442;2023-05-07T11:18:00;23.10;90.70
14122;DHT22;7139;48.114;11.442;2023-05-07T11:20:52;23.20;89.20
14122;DHT22;7139;48.114;11.442;2023-05-07T11:23:56;23.40;90.20
14122;DHT22;7139;48.114;11.442;2023-05-07T11:26:24;23.70;90.20
14122;DHT22;7139;48.114;11.442;2023-05-07T11:28:51;23.80;86.90
14122;DHT22;7139;48.114;11.442;2023-05-07T11:31:21;23.70;88.20
14122;DHT22;7139;48.114;11.442;2023-05-07T11:33:49;23.70;88.20
14122;DHT22;7139;48.114;11.442;2023-05-07T11:36:18;23.60;86.20
14122;DHT22;7139;48.114;11.442;2023-05-07T11:38:46;23.40;87.50
14122;DHT22;7139;48.114;11.442;2023-05-07T11:41:12;23.30;88.70
14122;DHT22;7139;48.114;11.442;2023-05-07T11:43:53;23.40;89.30
14122;DHT22;7139;48.114;11.442;2023-05-07T11:46:21;23.70;89.70
14122;DHT22;7139;48.114;11.442;2023-05-07T11:48:48;23.90;90.00
14122;DHT22;7139;48.114;11.442;2023-05-07T11:51:20;23.90;87.90
14122;DHT22;7139;48.114;11.442;2023-05-07T11:53:47;23.90;89.60
14122;DHT22;7139;48.114;11.442;2023-05-07T11:56:15;24.10;90.20
14122;DHT22;7139;48.114;11.442;2023-05-07T11:58:43;24.10;88.60
14122;DHT22;7139;48.114;11.442;2023-05-07T12:01:11;24.10;88.10
14122;DHT22;7139;48.114;11.442;2023-05-07T12:03:40;24.00;87.60
14122;DHT22;7139;48.114;11.442;2023-05-07T12:06:09;23.70;86.70
14122;DHT22;7139;48.114;11.442;2023-05-07T12:08:38;23.50;87.60
14122;DHT22;7139;48.114;11.442;2023-05-07T12:11:07;23.30;88.80
14122;DHT22;7139;48.114;11.442;2023-05-07T12:13:35;23.30;89.70
14122;DHT22;7139;48.114;11.442;2023-05-07T12:16:02;23.30;90.50
14122;DHT22;7139;48.114;11.442;2023-05-07T12:18:30;23.40;90.20
14122;DHT22;7139;48.114;11.442;2023-05-07T12:20:58;23.50;88.40
14122;DHT22;7139;48.114;11.442;2023-05-07T12:23:25;23.60;89.90
14122;DHT22;7139;48.114;11.442;2023-05-07T12:25:54;23.50;88.20
14122;DHT22;7139;48.114;11.442;2023-05-07T12:28:20;23.40;88.80
14122;DHT22;7139;48.114;11.442;2023-05-07T12:30:48;23.20;87.30
14122;DHT22;7139;48.114;11.442;2023-05-07T12:33:16;23.20;90.80
14122;DHT22;7139;48.114;11.442;2023-05-07T12:35:44;23.30;86.80
14122;DHT22;7139;48.114;11.442;2023-05-07T12:38:12;23.10;89.40
14122;DHT22;7139;48.114;11.442;2023-05-07T12:40:40;23.10;88.40
14122;DHT22;7139;48.114;11.442;2023-05-07T12:43:15;23.00;86.80
14122;DHT22;7139;48.114;11.442;2023-05-07T12:45:43;23.00;88.90
14122;DHT22;7139;48.114;11.442;2023-05-07T12:48:11;23.00;90.10
14122;DHT22;7139;48.114;11.442;2023-05-07T12:50:37;23.10;91.40
14122;DHT22;7139;48.114;11.442;2023-05-07T12:53:05;23.30;92.00
14122;DHT22;7139;48.114;11.442;2023-05-07T12:55:40;23.40;90.30
14122;DHT22;7139;48.114;11.442;2023-05-07T12:58:15;23.50;89.40
14122;DHT22;7139;48.114;11.442;2023-05-07T13:00:42;23.50;87.80
14122;DHT22;7139;48.114;11.442;2023-05-07T13:03:10;23.50;89.10
14122;DHT22;7139;48.114;11.442;2023-05-07T13:05:37;23.70;88.60
14122;DHT22;7139;48.114;11.442;2023-05-07T13:08:04;23.80;89.10
14122;DHT22;7139;48.114;11.442;2023-05-07T13:10:30;23.80;87.30
14122;DHT22;7139;48.114;11.442;2023-05-07T13:12:58;23.80;85.50
14122;DHT22;7139;48.114;11.442;2023-05-07T13:15:26;23.70;88.30
14122;DHT22;7139;48.114;11.442;2023-05-07T13:17:53;23.70;89.10
14122;DHT22;7139;48.114;11.442;2023-05-07T13:20:20;23.80;88.50
14122;DHT22;7139;48.114;11.442;2023-05-07T13:22:47;23.80;88.50
14122;DHT22;7139;48.114;11.442;2023-05-07T13:25:14;23.80;88.40
14122;DHT22;7139;48.114;11.442;2023-05-07T13:27:40;24.00;88.30
14122;DHT22;7139;48.114;11.442;2023-05-07T13:30:07;24.00;87.40
14122;DHT22;7139;48.114;11.442;2023-05-07T13:32:36;24.10;88.70
14122;DHT22;7139;48.114;11.442;2023-05-07T13:35:03;24.10;87.40
14122;DHT22;7139;48.114;11.442;2023-05-07T13:37:30;24.10;87.20
14122;DHT22;7139;48.114;11.442;2023-05-07T13:39:56;24.20;84.50
14122;DHT22;7139;48.114;11.442;2023-05-07T13:42:23;24.10;83.00
14122;DHT22;7139;48.114;11.442;2023-05-07T13:44:50;24.10;83.50
14122;DHT22;7139;48.114;11.442;2023-05-07T13:47:16;24.20;84.50
14122;DHT22;7139;48.114;11.442;2023-05-07T13:49:45;24.20;85.60
14122;DHT22;7139;48.114;11.442;2023-05-07T13:52:11;24.40;86.80
14122;DHT22;7139;48.114;11.442;2023-05-07T13:54:38;24.50;87.50
14122;DHT22;7139;48.114;11.442;2023-05-07T13:57:05;24.60;85.90
14122;DHT22;7139;48.114;11.442;2023-05-07T13:59:32;24.70;86.60
14122;DHT22;7139;48.114;11.442;2023-05-07T14:01:59;24.60;84.10
14122;DHT22;7139;48.114;11.442;2023-05-07T14:04:26;24.40;83.70
14122;DHT22;7139;48.114;11.442;2023-05-07T14:06:54;24.20;86.50
14122;DHT22;7139;48.114;11.442;2023-05-07T14:09:21;24.10;85.30
14122;DHT22;7139;48.114;11.442;2023-05-07T14:11:48;23.90;84.30
14122;DHT22;7139;48.114;11.442;2023-05-07T14:14:16;23.80;87.40
14122;DHT22;7139;48.114;11.442;2023-05-07T14:16:43;23.70;87.80
14122;DHT22;7139;48.114;11.442;2023-05-07T14:19:10;23.60;84.60
14122;DHT22;7139;48.114;11.442;2023-05-07T14:21:37;23.40;86.40
14122;DHT22;7139;48.114;11.442;2023-05-07T14:24:07;23.30;86.00
14122;DHT22;7139;48.114;11.442;2023-05-07T14:26:34;23.20;88.00
14122;DHT22;7139;48.114;11.442;2023-05-07T14:29:00;23.20;90.00
14122;DHT22;7139;48.114;11.442;2023-05-07T14:31:27;23.10;86.40
14122;DHT22;7139;48.114;11.442;2023-05-07T14:33:54;23.00;88.20
14122;DHT22;7139;48.114;11.442;2023-05-07T14:36:23;23.10;89.30
14122;DHT22;7139;48.114;11.442;2023-05-07T14:38:51;23.10;88.10
14122;DHT22;7139;48.114;11.442;2023-05-07T14:41:19;23.20;86.90
14122;DHT22;7139;48.114;11.442;2023-05-07T14:43:47;23.10;87.70
14122;DHT22;7139;48.114;11.442;2023-05-07T14:46:17;23.00;85.70
14122;DHT22;7139;48.114;11.442;2023-05-07T14:48:44;23.00;85.80
14122;DHT22;7139;48.114;11.442;2023-05-07T14:51:11;22.90;85.40
14122;DHT22;7139;48.114;11.442;2023-05-07T14:53:38;22.80;86.50
14122;DHT22;7139;48.114;11.442;2023-05-07T14:56:05;22.60;85.70
14122;DHT22;7139;48.114;11.442;2023-05-07T14:58:34;22.50;86.60
14122;DHT22;7139;48.114;11.442;2023-05-07T15:01:00;22.40;87.10
14122;DHT22;7139;48.114;11.442;2023-05-07T15:03:28;22.40;86.90
14122;DHT22;7139;48.114;11.442;2023-05-07T15:05:55;22.30;86.70
14122;DHT22;7139;48.114;11.442;2023-05-07T15:08:22;22.30;90.10
14122;DHT22;7139;48.114;11.442;2023-05-07T15:10:48;22.20;88.40
14122;DHT22;7139;48.114;11.442;2023-05-07T15:13:15;22.10;88.30
14122;DHT22;7139;48.114;11.442;2023-05-07T15:15:44;22.00;88.80
14122;DHT22;7139;48.114;11.442;2023-05-07T15:18:11;21.90;89.30
14122;DHT22;7139;48.114;11.442;2023-05-07T15:20:38;21.80;87.90
14122;DHT22;7139;48.114;11.442;2023-05-07T15:23:06;21.80;88.40
14122;DHT22;7139;48.114;11.442;2023-05-07T15:25:35;21.80;89.80
14122;DHT22;7139;48.114;11.442;2023-05-07T15:28:02;21.80;90.10
14122;DHT22;7139;48.114;11.442;2023-05-07T15:30:29;21.70;90.30
14122;DHT22;7139;48.114;11.442;2023-05-07T15:32:57;21.70;90.60
14122;DHT22;7139;48.114;11.442;2023-05-07T15:35:24;21.60;90.50
14122;DHT22;7139;48.114;11.442;2023-05-07T15:37:51;21.60;90.80